createdAt,value
2018-11-25T00:01:28.661Z,14.57
2018-11-25T00:06:31.064Z,14.37
2018-11-25T00:11:33.481Z,14.17
2018-11-25T00:16:35.878Z,14.33
2018-11-25T00:21:38.234Z,14.80
2018-11-25T00:26:41.582Z,12.97
2018-11-25T00:31:44.637Z,14.13
2018-11-25T00:36:47.170Z,14.07
2018-11-25T00:41:49.528Z,13.87
2018-11-25T00:46:51.909Z,13.60
2018-11-25T00:51:54.371Z,12.90
2018-11-25T00:56:56.766Z,13.77
2018-11-25T01:02:00.028Z,13.90
2018-11-25T01:07:02.418Z,13.73
2018-11-25T01:12:05.281Z,13.70
2018-11-25T01:17:07.748Z,13.57
2018-11-25T01:22:10.839Z,14.57
2018-11-25T01:27:13.200Z,13.53
2018-11-25T01:32:15.633Z,14.50
2018-11-25T01:37:17.991Z,15.00
2018-11-25T01:42:20.530Z,14.07
2018-11-25T01:47:22.970Z,13.93
2018-11-25T01:52:25.524Z,14.93
2018-11-25T01:57:27.850Z,14.17
2018-11-25T02:02:30.166Z,15.40
2018-11-25T02:07:32.807Z,14.67
2018-11-25T02:12:35.222Z,14.43
2018-11-25T02:17:37.772Z,14.70
2018-11-25T02:22:40.120Z,14.07
2018-11-25T02:27:42.465Z,14.27
2018-11-25T02:32:45.504Z,15.00
2018-11-25T02:37:47.856Z,14.33
2018-11-25T02:42:50.435Z,13.57
2018-11-25T02:47:53.905Z,14.27
2018-11-25T02:53:12.478Z,14.63
2018-11-25T02:58:14.859Z,13.50
2018-11-25T03:03:17.199Z,14.83
2018-11-25T03:08:19.561Z,14.70
2018-11-25T03:13:21.916Z,14.70
2018-11-25T03:18:24.363Z,14.20
2018-11-25T03:23:26.720Z,14.10
2018-11-25T03:28:29.077Z,14.20
2018-11-25T03:33:31.465Z,14.70
2018-11-25T03:38:33.803Z,14.73
2018-11-25T03:43:36.168Z,14.33
2018-11-25T03:48:39.802Z,14.17
2018-11-25T03:53:42.134Z,14.17
2018-11-25T03:58:44.668Z,14.83
2018-11-25T04:03:47.007Z,14.80
2018-11-25T04:08:49.519Z,15.17
2018-11-25T04:13:51.859Z,14.23
2018-11-25T04:18:54.252Z,13.53
2018-11-25T04:23:56.760Z,14.37
2018-11-25T04:28:59.133Z,14.53
2018-11-25T04:34:01.600Z,14.70
2018-11-25T04:39:07.441Z,13.70
2018-11-25T04:44:09.813Z,14.53
2018-11-25T04:49:12.264Z,14.60
2018-11-25T04:54:14.567Z,12.90
2018-11-25T04:59:16.874Z,13.93
2018-11-25T05:04:19.370Z,14.63
2018-11-25T05:09:21.663Z,15.30
2018-11-25T05:14:23.976Z,15.07
2018-11-25T05:19:26.440Z,14.43
2018-11-25T05:24:29.039Z,15.07
2018-11-25T05:29:31.328Z,14.13
2018-11-25T05:34:33.684Z,15.10
2018-11-25T05:39:36.083Z,16.37
2018-11-25T05:44:38.347Z,15.43
2018-11-25T05:49:40.689Z,14.60
2018-11-25T05:54:42.966Z,14.00
2018-11-25T05:59:45.240Z,14.30
2018-11-25T06:04:47.519Z,14.13
2018-11-25T06:09:49.795Z,14.20
2018-11-25T06:14:52.060Z,14.77
2018-11-25T06:19:54.404Z,15.17
2018-11-25T06:24:56.713Z,15.63
2018-11-25T06:29:58.988Z,15.73
2018-11-25T06:35:01.304Z,16.07
2018-11-25T06:40:06.114Z,15.47
2018-11-25T06:45:12.903Z,15.40
2018-11-25T06:50:15.431Z,15.60
2018-11-25T06:55:17.737Z,14.57
2018-11-25T07:00:22.542Z,16.20
2018-11-25T07:05:24.825Z,15.13
2018-11-25T07:10:27.152Z,15.67
2018-11-25T07:15:29.598Z,16.00
2018-11-25T07:20:32.171Z,15.33
2018-11-25T07:25:34.714Z,15.93
2018-11-25T07:30:37.532Z,15.17
2018-11-25T07:35:39.804Z,15.47
2018-11-25T07:40:42.105Z,14.77
2018-11-25T07:45:44.374Z,14.77
2018-11-25T07:50:46.878Z,15.97
2018-11-25T07:55:49.426Z,15.63
2018-11-25T08:00:51.695Z,15.77
2018-11-25T08:05:54.174Z,14.93
2018-11-25T08:10:56.540Z,16.40
2018-11-25T08:15:58.824Z,14.87
2018-11-25T08:21:01.227Z,14.33
2018-11-25T08:26:03.734Z,14.47
2018-11-25T08:31:06.123Z,14.63
2018-11-25T08:36:08.430Z,15.03
2018-11-25T08:41:10.716Z,15.13
2018-11-25T08:46:13.060Z,15.00
2018-11-25T08:51:15.436Z,15.00
2018-11-25T09:01:32.700Z,14.70
2018-11-25T09:06:34.975Z,15.13
2018-11-25T09:11:37.251Z,16.90
2018-11-25T09:16:39.546Z,14.90
2018-11-25T09:21:42.434Z,16.47
2018-11-25T09:26:44.690Z,17.10
2018-11-25T09:31:47.030Z,15.40
2018-11-25T09:36:50.340Z,16.00
2018-11-25T09:41:52.759Z,14.00
2018-11-25T09:46:55.392Z,14.77
2018-11-25T09:51:57.965Z,15.13
2018-11-25T09:57:00.342Z,14.53
2018-11-25T10:02:02.670Z,13.93
2018-11-25T10:07:05.138Z,14.73
2018-11-25T10:12:08.536Z,14.07
2018-11-25T10:17:10.948Z,13.73
2018-11-25T10:22:13.515Z,13.87
2018-11-25T10:27:15.915Z,14.13
2018-11-25T10:32:18.775Z,13.80
2018-11-25T10:37:21.175Z,13.30
2018-11-25T10:42:23.576Z,13.23
2018-11-25T10:47:25.949Z,13.73
2018-11-25T10:52:28.668Z,13.63
2018-11-25T10:57:30.972Z,15.03
2018-11-25T11:02:39.111Z,14.40
2018-11-25T11:07:44.756Z,13.63
2018-11-25T11:12:47.085Z,13.30
2018-11-25T11:17:49.499Z,14.03
2018-11-25T11:22:51.987Z,13.53
2018-11-25T11:27:54.384Z,13.40
2018-11-25T11:32:56.797Z,13.33
2018-11-25T11:37:59.799Z,14.27
2018-11-25T11:43:02.852Z,14.77
2018-11-25T11:48:06.012Z,15.40
2018-11-25T11:53:08.512Z,15.53
2018-11-25T11:58:10.935Z,13.97
2018-11-25T12:03:13.238Z,13.30
2018-11-25T12:08:15.653Z,12.17
2018-11-25T12:13:18.603Z,12.70
2018-11-25T12:18:21.026Z,12.00
2018-11-25T12:23:23.432Z,12.67
2018-11-25T12:28:25.738Z,11.37
2018-11-25T12:33:28.083Z,11.73
2018-11-25T12:38:30.395Z,11.10
2018-11-25T12:43:33.115Z,12.53
2018-11-25T12:48:35.420Z,13.00
2018-11-25T12:53:37.853Z,11.83
2018-11-25T12:58:40.213Z,11.30
2018-11-25T13:03:42.630Z,11.90
2018-11-25T13:08:44.940Z,12.43
2018-11-25T13:13:47.326Z,12.67
2018-11-25T13:18:49.762Z,12.87
2018-11-25T13:23:52.147Z,12.23
2018-11-25T13:28:54.592Z,12.33
2018-11-25T13:33:57.119Z,12.00
2018-11-25T13:38:59.579Z,12.33
2018-11-25T13:44:01.896Z,12.80
2018-11-25T13:49:04.345Z,15.37
2018-11-25T13:54:06.912Z,13.57
2018-11-25T13:59:09.227Z,13.93
2018-11-25T14:04:11.564Z,14.00
2018-11-25T14:09:14.902Z,13.97
2018-11-25T14:14:17.205Z,14.00
2018-11-25T14:19:19.539Z,14.77
2018-11-25T14:24:22.248Z,15.03
2018-11-25T14:29:24.900Z,14.00
2018-11-25T14:34:27.231Z,15.10
2018-11-25T14:39:29.576Z,15.97
2018-11-25T14:44:31.900Z,15.50
2018-11-25T14:49:34.237Z,16.57
2018-11-25T14:54:36.616Z,16.03
2018-11-25T14:59:39.108Z,16.50
2018-11-25T15:04:41.844Z,17.23
2018-11-25T15:09:44.146Z,18.03
2018-11-25T15:14:46.480Z,17.77
2018-11-25T15:19:49.775Z,18.07
2018-11-25T15:24:52.139Z,18.87
2018-11-25T15:29:54.800Z,19.03
2018-11-25T15:34:57.137Z,18.37
2018-11-25T15:39:59.491Z,19.07
2018-11-25T15:45:01.856Z,20.03
2018-11-25T15:50:07.549Z,19.43
2018-11-25T15:55:12.390Z,18.57
2018-11-25T16:00:16.982Z,18.93
2018-11-25T16:05:22.807Z,18.63
2018-11-25T16:10:25.175Z,19.03
2018-11-25T16:15:28.233Z,18.80
2018-11-25T16:20:30.727Z,19.00
2018-11-25T16:25:34.904Z,19.73
2018-11-25T16:30:37.412Z,19.33
2018-11-25T16:35:39.748Z,19.67
2018-11-25T16:40:42.304Z,19.67
2018-11-25T16:45:44.679Z,19.17
2018-11-25T16:50:47.214Z,18.93
2018-11-25T16:55:50.031Z,20.77
2018-11-25T17:00:53.374Z,20.00
2018-11-25T17:05:56.394Z,20.80
2018-11-25T17:10:59.453Z,20.37
2018-11-25T17:16:01.871Z,18.73
2018-11-25T17:21:04.301Z,21.23
2018-11-25T17:26:06.694Z,20.23
2018-11-25T17:31:09.096Z,20.73
2018-11-25T17:36:11.404Z,20.67
2018-11-25T17:41:13.901Z,22.67
2018-11-25T17:46:16.211Z,23.10
2018-11-25T17:51:18.564Z,22.77
2018-11-25T17:56:21.491Z,23.17
2018-11-25T18:01:23.875Z,22.77
2018-11-25T18:06:26.269Z,23.40
2018-11-25T18:11:29.073Z,23.60
2018-11-25T18:16:31.452Z,26.10
2018-11-25T18:21:34.036Z,27.77
2018-11-25T18:26:36.623Z,27.70
2018-11-25T18:31:40.453Z,27.60
2018-11-25T18:36:42.752Z,27.90
2018-11-25T18:41:45.055Z,26.27
2018-11-25T18:46:48.539Z,25.67
2018-11-25T18:51:50.847Z,26.07
2018-11-25T18:56:53.180Z,25.13
2018-11-25T19:01:59.474Z,24.70
2018-11-25T19:07:02.073Z,25.73
2018-11-25T19:12:04.612Z,25.27
2018-11-25T19:17:06.944Z,24.63
2018-11-25T19:22:09.227Z,24.87
2018-11-25T19:27:11.615Z,24.60
2018-11-25T19:32:14.068Z,26.47
2018-11-25T19:37:16.428Z,25.83
2018-11-25T19:42:18.717Z,25.43
2018-11-25T19:47:21.050Z,27.03
2018-11-25T19:52:23.372Z,29.00
2018-11-25T19:57:25.861Z,29.33
2018-11-25T20:02:28.175Z,30.00
2018-11-25T20:07:30.539Z,30.63
2018-11-25T20:12:39.064Z,30.40
2018-11-25T20:17:41.423Z,30.20
2018-11-25T20:22:44.276Z,29.50
2018-11-25T20:27:48.423Z,28.00
2018-11-25T20:32:56.442Z,28.53
2018-11-25T20:38:05.464Z,28.10
2018-11-25T20:43:07.855Z,26.40
2018-11-25T20:48:10.287Z,26.03
2018-11-25T20:53:18.320Z,27.43
2018-11-25T20:58:20.643Z,27.57
2018-11-25T21:03:23.105Z,26.10
2018-11-25T21:08:27.433Z,26.17
2018-11-25T21:13:27.810Z,26.07
2018-11-25T21:18:30.104Z,26.07
2018-11-25T21:23:32.425Z,28.40
2018-11-25T21:28:34.766Z,28.73
2018-11-25T21:33:37.221Z,29.60
2018-11-25T21:38:39.553Z,29.67
2018-11-25T21:43:41.932Z,29.33
2018-11-25T21:48:44.217Z,27.23
2018-11-25T21:53:46.469Z,28.03
2018-11-25T21:58:48.912Z,27.80
2018-11-25T22:03:51.300Z,29.13
2018-11-25T22:08:53.579Z,26.87
2018-11-25T22:13:55.858Z,24.93
2018-11-25T22:18:58.135Z,23.47
2018-11-25T22:24:00.421Z,24.33
2018-11-25T22:29:02.852Z,23.87
2018-11-25T22:34:05.458Z,25.00
2018-11-25T22:39:08.856Z,26.47
2018-11-25T22:44:11.229Z,25.87
2018-11-25T22:49:13.491Z,27.47
2018-11-25T22:54:15.874Z,26.73
2018-11-25T22:59:18.219Z,29.63
2018-11-25T23:04:32.012Z,29.80
2018-11-25T23:09:34.311Z,30.43
2018-11-25T23:14:36.575Z,29.30
2018-11-25T23:19:38.857Z,31.13
2018-11-25T23:24:41.326Z,30.73
2018-11-25T23:29:43.643Z,31.57
2018-11-25T23:34:45.957Z,31.93
2018-11-25T23:39:48.272Z,31.97
2018-11-25T23:44:50.595Z,33.13
2018-11-25T23:49:52.984Z,31.63
2018-11-25T23:54:55.273Z,32.23
2018-11-25T23:59:57.615Z,31.50
